Time;durP1;ratioP1;P1;durP2;ratioP2;P2;SDS_P1;SDS_P2;PMS_P1;PMS_P2;Temp;Humidity;BMP_temperature;BMP_pressure;BME280_temperature;BME280_humidity;BME280_pressure;Samples;Min_cycle;Max_cycle;Signal;HPM_P1;HPM_P2
2023/01/09 00:00:29;;;;;;;4.47;4.07;;;;;;;13.17;59.38;97068.72;7002421;28;20268;-80
2023/01/09 00:03:51;;;;;;;4.27;3.83;;;;;;;13.10;59.72;97070.84;7001591;28;20250;-80
2023/01/09 00:07:12;;;;;;;4.20;3.80;;;;;;;13.36;58.61;97067.22;7000781;28;20702;-80
2023/01/09 00:10:34;;;;;;;3.70;3.40;;;;;;;13.26;58.42;97060.91;7001292;28;20285;-80
2023/01/09 00:13:56;;;;;;;3.87;3.47;;;;;;;13.34;58.61;97050.41;7002103;28;20260;-80
2023/01/09 00:17:18;;;;;;;3.80;3.40;;;;;;;12.98;59.62;97075.66;7009919;28;20316;-80
2023/01/09 00:20:40;;;;;;;3.83;3.53;;;;;;;13.30;58.96;97064.72;7010024;28;20244;-80
2023/01/09 00:24:02;;;;;;;3.90;3.13;;;;;;;13.51;58.05;97045.59;7001159;28;20702;-80
2023/01/09 00:27:23;;;;;;;3.40;3.17;;;;;;;13.57;58.07;97047.22;7000919;28;20311;-80
2023/01/09 00:30:55;;;;;;;3.53;3.23;;;;;;;13.54;57.39;97039.66;7000937;28;20255;-80
2023/01/09 00:34:17;;;;;;;3.30;3.00;;;;;;;13.62;57.52;97049.94;6995343;28;20250;-80
2023/01/09 00:37:38;;;;;;;2.80;2.60;;;;;;;13.60;57.38;97033.19;7000950;28;20230;-80
2023/01/09 00:41:00;;;;;;;3.10;2.90;;;;;;;13.87;56.43;97051.91;7001238;28;20304;-80
2023/01/09 00:44:24;;;;;;;2.87;2.67;;;;;;;13.71;56.77;97052.97;7005532;28;20232;-80
2023/01/09 00:47:50;;;;;;;2.70;2.50;;;;;;;13.30;58.01;97056.59;7004927;28;20586;-79
2023/01/09 00:51:11;;;;;;;3.97;3.03;;;;;;;13.40;57.58;97071.00;7005895;28;20674;-80
2023/01/09 00:54:33;;;;;;;2.80;2.60;;;;;;;13.07;58.53;97073.28;7005347;28;20277;-80
2023/01/09 00:57:55;;;;;;;2.70;2.50;;;;;;;13.24;58.02;97066.63;7005764;28;20411;-79
2023/01/09 01:01:17;;;;;;;2.90;2.47;;;;;;;13.15;58.22;97060.06;7005731;28;20296;-80
2023/01/09 01:08:19;;;;;;;2.60;2.40;;;;;;;13.90;56.16;97057.63;7005699;28;20198;-80
2023/01/09 01:11:41;;;;;;;2.63;2.43;;;;;;;13.60;56.18;97054.00;7005040;28;20316;-79
2023/01/09 01:15:02;;;;;;;2.60;2.40;;;;;;;13.48;57.44;97048.84;7004691;28;20286;-80
2023/01/09 01:18:24;;;;;;;2.53;2.33;;;;;;;13.41;57.16;97044.75;7005436;28;20300;-79
2023/01/09 01:21:47;;;;;;;2.40;2.20;;;;;;;13.45;57.34;97045.84;7005994;28;20679;-79
2023/01/09 01:25:09;;;;;;;2.23;2.13;;;;;;;13.64;57.28;97045.06;7004679;28;20312;-80
2023/01/09 01:28:30;;;;;;;2.10;2.00;;;;;;;13.43;57.77;97042.56;7005399;28;20566;-81
2023/01/09 01:31:52;;;;;;;2.57;2.47;;;;;;;13.61;56.98;97023.97;7005176;28;20248;-79
2023/01/09 01:35:13;;;;;;;2.20;2.00;;;;;;;13.79;56.64;97039.72;7004628;28;20229;-80
2023/01/09 01:38:36;;;;;;;2.20;2.10;;;;;;;13.73;56.30;97038.06;7004996;28;20285;-79
2023/01/09 01:41:58;;;;;;;2.00;1.90;;;;;;;13.65;57.09;97043.19;7005103;28;20674;-79
2023/01/09 01:45:20;;;;;;;2.00;1.90;;;;;;;13.13;58.35;97039.75;7004287;28;20752;-79
2023/01/09 01:48:42;;;;;;;1.80;1.70;;;;;;;13.18;57.98;97029.78;7004349;28;20339;-79
2023/01/09 01:52:03;;;;;;;1.83;1.73;;;;;;;13.30;57.80;97029.53;7004389;28;20301;-79
2023/01/09 01:55:26;;;;;;;1.70;1.60;;;;;;;13.39;57.82;97033.38;7004395;28;20290;-79
2023/01/09 01:58:50;;;;;;;1.50;1.50;;;;;;;13.46;57.57;97042.06;7004803;28;20294;-79
2023/01/09 02:02:12;;;;;;;1.60;1.50;;;;;;;13.45;58.09;97021.50;7004211;28;20198;-79
2023/01/09 02:05:34;;;;;;;1.80;1.70;;;;;;;12.92;58.86;96992.81;7003983;28;20302;-79
2023/01/09 02:08:55;;;;;;;4.47;3.00;;;;;;;13.39;58.38;97023.34;7004670;28;20202;-79
2023/01/09 02:12:22;;;;;;;1.80;1.70;;;;;;;13.32;57.81;97039.03;7004523;28;20247;-79
2023/01/09 02:15:53;;;;;;;1.70;1.60;;;;;;;13.20;58.51;97040.31;7004336;28;20233;-79
2023/01/09 02:19:28;;;;;;;1.73;1.63;;;;;;;13.17;58.05;97021.91;7004189;28;20275;-79
2023/01/09 02:23:00;;;;;;;1.50;1.50;;;;;;;13.18;58.32;97020.84;7004386;28;20282;-80
2023/01/09 02:26:34;;;;;;;1.43;1.33;;;;;;;13.83;56.68;97011.00;7003771;28;20379;-80
2023/01/09 02:30:31;;;;;;;1.43;1.43;;;;;;;13.70;56.96;97018.84;7005067;28;20760;-79
2023/01/09 02:34:02;;;;;;;1.30;1.30;;;;;;;13.51;57.39;97023.94;6999014;28;20241;-79
2023/01/09 02:37:33;;;;;;;1.30;1.30;;;;;;;13.16;58.92;97026.50;7003948;28;20366;-79
2023/01/09 02:41:00;;;;;;;1.50;1.50;;;;;;;12.83;59.16;97016.06;7003736;28;20654;-79
2023/01/09 02:44:23;;;;;;;1.50;1.40;;;;;;;13.40;58.23;97014.16;7004164;28;20198;-79
2023/01/09 02:47:45;;;;;;;1.20;1.20;;;;;;;13.51;57.52;96998.75;7003710;28;20304;-79
2023/01/09 02:51:13;;;;;;;1.30;1.30;;;;;;;13.50;57.18;97024.19;7004139;28;20209;-80
2023/01/09 02:54:41;;;;;;;1.13;1.13;;;;;;;13.67;57.02;97054.56;7003770;28;20333;-79
2023/01/09 02:58:09;;;;;;;1.80;1.70;;;;;;;13.36;57.79;97052.84;7004844;28;20280;-79
2023/01/09 03:01:37;;;;;;;1.67;1.43;;;;;;;13.62;56.88;97051.88;7004614;28;20675;-80
2023/01/09 03:05:05;;;;;;;1.20;1.20;;;;;;;13.29;57.38;97044.97;7003256;28;20609;-80
2023/01/09 03:08:33;;;;;;;1.40;1.30;;;;;;;13.51;57.61;97055.63;7004611;28;20712;-79
2023/01/09 03:11:59;;;;;;;2.17;2.07;;;;;;;12.97;58.79;97036.16;7005363;28;20238;-79
2023/01/09 03:15:25;;;;;;;1.50;1.10;;;;;;;12.77;59.20;97052.25;6987106;28;20288;-80
2023/01/09 03:18:47;;;;;;;1.30;1.30;;;;;;;12.86;59.57;97080.44;6977138;28;20187;-79
2023/01/09 03:22:08;;;;;;;1.30;1.30;;;;;;;12.90;59.87;97083.41;6978045;28;20420;-80
2023/01/09 03:25:32;;;;;;;1.27;1.27;;;;;;;12.77;59.46;97082.00;6976424;28;20230;-79
2023/01/09 03:28:53;;;;;;;1.20;1.20;;;;;;;12.76;60.34;97074.94;6977463;28;20230;-79
2023/01/09 03:32:15;;;;;;;1.30;1.30;;;;;;;12.49;60.64;97078.81;6977135;28;20368;-79
2023/01/09 03:35:37;;;;;;;1.70;1.60;;;;;;;12.91;59.17;97075.06;6976703;28;20221;-79
2023/01/09 03:38:58;;;;;;;0.90;0.90;;;;;;;12.65;59.67;97075.16;6978070;28;20202;-79
2023/01/09 03:42:21;;;;;;;1.30;1.30;;;;;;;12.45;60.43;97102.84;6977751;28;20308;-80
2023/01/09 03:45:43;;;;;;;0.90;0.90;;;;;;;12.44;59.54;97111.19;6977901;28;20313;-80
2023/01/09 03:49:04;;;;;;;1.10;1.00;;;;;;;12.53;58.50;97115.91;6976602;28;20304;-79
2023/01/09 03:52:26;;;;;;;1.10;1.10;;;;;;;12.67;58.24;97105.44;6978466;28;20263;-80
2023/01/09 03:55:49;;;;;;;1.20;1.20;;;;;;;12.37;58.13;97149.25;6978439;28;20317;-79
2023/01/09 03:59:11;;;;;;;1.10;1.10;;;;;;;12.37;57.24;97151.97;6978885;28;20272;-79
2023/01/09 04:02:33;;;;;;;1.00;1.00;;;;;;;12.46;56.09;97163.91;6979738;28;20800;-79
2023/01/09 04:05:54;;;;;;;1.13;1.07;;;;;;;12.59;57.00;97173.50;6979130;28;20380;-79
2023/01/09 04:09:16;;;;;;;1.10;1.10;;;;;;;12.46;57.80;97190.16;6980004;28;20804;-79
2023/01/09 04:12:37;;;;;;;1.00;1.00;;;;;;;12.73;57.74;97180.94;6980757;28;20359;-79
2023/01/09 04:16:00;;;;;;;1.10;1.10;;;;;;;12.57;58.96;97211.59;6983800;28;20335;-79
2023/01/09 04:19:22;;;;;;;1.07;1.07;;;;;;;12.01;61.56;97246.38;6987908;28;20785;-80
2023/01/09 04:22:43;;;;;;;1.10;1.10;;;;;;;11.93;61.35;97257.63;6995466;28;20233;-79
2023/01/09 04:26:06;;;;;;;1.20;1.20;;;;;;;11.35;62.60;97257.31;6998900;28;20276;-79
2023/01/09 04:29:28;;;;;;;1.40;1.30;;;;;;;11.96;62.32;97292.22;6998056;28;20209;-79
2023/01/09 04:32:51;;;;;;;1.70;1.27;;;;;;;12.43;61.05;97286.06;6991220;28;20609;-79
2023/01/09 04:36:12;;;;;;;1.10;1.10;;;;;;;12.14;59.92;97284.66;6983129;28;20226;-79
2023/01/09 04:39:34;;;;;;;1.27;1.00;;;;;;;11.48;59.87;97263.19;6984762;28;20340;-79
2023/01/09 04:42:55;;;;;;;1.13;1.13;;;;;;;11.75;59.82;97323.53;6986204;28;20225;-79
2023/01/09 04:46:17;;;;;;;0.97;0.97;;;;;;;11.60;58.57;97322.50;6985572;28;20317;-80
2023/01/09 04:49:40;;;;;;;1.10;1.10;;;;;;;11.57;58.33;97315.69;6985795;28;20233;-79
2023/01/09 04:53:01;;;;;;;1.00;1.00;;;;;;;11.69;56.97;97339.94;6987468;28;20225;-79
2023/01/09 04:56:23;;;;;;;1.30;1.20;;;;;;;11.53;55.76;97319.97;6986787;28;20288;-79
2023/01/09 04:59:44;;;;;;;1.10;1.10;;;;;;;11.40;56.47;97336.47;6986795;28;20282;-79
2023/01/09 05:03:06;;;;;;;2.30;1.23;;;;;;;11.33;55.82;97333.13;6997070;28;20273;-80
2023/01/09 05:06:29;;;;;;;1.03;1.03;;;;;;;11.01;55.77;97342.00;7013909;28;20241;-79
2023/01/09 05:09:50;;;;;;;4.73;1.20;;;;;;;11.47;55.00;97314.72;7014291;28;20546;-79
2023/01/09 05:13:12;;;;;;;0.90;0.90;;;;;;;11.73;55.35;97354.53;7015279;28;20244;-79
2023/01/09 05:16:33;;;;;;;1.50;1.40;;;;;;;11.65;54.44;97353.09;6989532;28;20309;-80
2023/01/09 05:19:55;;;;;;;1.30;1.30;;;;;;;11.57;55.35;97364.25;6987131;28;20221;-79
2023/01/09 05:23:18;;;;;;;1.37;1.37;;;;;;;11.92;53.67;97385.63;6987145;28;20236;-80
2023/01/09 05:26:39;;;;;;;1.23;1.23;;;;;;;11.94;54.43;97383.50;6986278;28;20229;-79
2023/01/09 05:30:01;;;;;;;1.27;1.27;;;;;;;12.13;54.13;97401.88;6987557;28;20217;-80
2023/01/09 05:33:22;;;;;;;1.87;1.40;;;;;;;12.17;53.01;97400.28;6986222;28;20286;-80
2023/01/09 05:36:44;;;;;;;1.67;1.57;;;;;;;11.66;54.41;97411.41;6985843;28;20265;-80
2023/01/09 05:40:08;;;;;;;3.33;2.10;;;;;;;11.37;55.08;97425.19;6986275;28;20804;-80
2023/01/09 05:43:30;;;;;;;2.27;2.07;;;;;;;11.52;54.51;97437.03;6986327;28;20256;-79
2023/01/09 05:46:51;;;;;;;1.73;1.63;;;;;;;11.75;53.56;97441.53;6987057;28;20246;-80
2023/01/09 05:50:14;;;;;;;1.83;1.73;;;;;;;11.77;53.12;97442.94;6984222;28;20340;-78
2023/01/09 05:53:35;;;;;;;3.77;2.03;;;;;;;11.41;54.36;97464.94;6982935;28;20297;-82
2023/01/09 05:56:58;;;;;;;1.57;1.47;;;;;;;11.72;52.83;97460.91;6995627;28;20249;-83
2023/01/09 06:00:20;;;;;;;1.40;1.40;;;;;;;11.18;54.26;97459.66;6980590;28;20274;-82
2023/01/09 06:03:42;;;;;;;1.70;1.60;;;;;;;11.44;53.92;97466.31;7005974;28;20206;-82
2023/01/09 06:07:03;;;;;;;2.40;1.50;;;;;;;11.34;53.64;97442.66;6997264;28;20313;-82
2023/01/09 06:10:25;;;;;;;1.53;1.43;;;;;;;11.53;52.61;97440.56;7005954;28;20213;-82
2023/01/09 06:13:47;;;;;;;1.83;1.60;;;;;;;11.76;51.59;97472.88;6994419;28;20340;-83
2023/01/09 06:17:09;;;;;;;1.70;1.60;;;;;;;11.69;51.54;97459.50;6984987;28;20313;-82
2023/01/09 06:20:31;;;;;;;2.30;1.93;;;;;;;11.93;51.11;97492.59;6983874;28;20194;-82
2023/01/09 06:23:52;;;;;;;2.27;1.50;;;;;;;11.27;52.90;97482.47;6983393;28;20202;-82
2023/01/09 06:27:14;;;;;;;2.50;1.80;;;;;;;11.32;52.36;97411.59;6983716;28;20447;-82
2023/01/09 06:30:37;;;;;;;1.90;1.80;;;;;;;11.34;51.87;97393.31;6983870;28;20234;-84
2023/01/09 06:33:58;;;;;;;1.83;1.73;;;;;;;11.81;51.96;97471.06;6985843;28;20229;-81
2023/01/09 06:37:20;;;;;;;1.50;1.50;;;;;;;11.69;52.24;97485.72;6987931;28;20222;-81
2023/01/09 06:40:42;;;;;;;3.43;1.80;;;;;;;11.34;52.24;97441.88;7012094;28;20209;-82
2023/01/09 06:44:04;;;;;;;1.60;1.50;;;;;;;11.62;52.50;97485.84;7016778;28;20217;-81
2023/01/09 06:47:26;;;;;;;1.50;1.33;;;;;;;11.44;52.26;97483.34;7014603;28;20229;-84
2023/01/09 06:50:48;;;;;;;1.20;1.20;;;;;;;11.35;52.93;97495.59;7008956;28;20233;-83
2023/01/09 06:54:10;;;;;;;1.37;1.37;;;;;;;11.57;51.84;97490.31;6996474;28;20232;-84
2023/01/09 06:57:31;;;;;;;1.93;1.70;;;;;;;10.67;53.74;97508.22;7015637;28;20229;-83
2023/01/09 07:00:54;;;;;;;1.73;1.60;;;;;;;10.57;54.23;97458.69;7015536;28;20290;-84
2023/01/09 07:04:17;;;;;;;1.60;1.50;;;;;;;10.79;53.88;97495.53;7007069;28;20214;-84
2023/01/09 07:07:39;;;;;;;1.57;1.50;;;;;;;11.19;53.38;97496.38;6986764;28;20612;-84
2023/01/09 07:11:00;;;;;;;1.80;1.70;;;;;;;11.40;53.08;97511.84;7016470;28;20240;-83
2023/01/09 07:14:34;;;;;;;2.20;2.10;;;;;;;11.40;53.25;97529.94;7016335;28;20253;-84
2023/01/09 07:17:56;;;;;;;1.97;1.87;;;;;;;11.57;52.61;97538.91;7017563;28;20209;-82
2023/01/09 07:21:19;;;;;;;3.83;3.20;;;;;;;11.43;52.99;97522.19;7012734;28;20209;-84
2023/01/09 07:24:43;;;;;;;3.43;2.77;;;;;;;11.64;52.73;97534.22;7003453;28;20205;-84
2023/01/09 07:28:05;;;;;;;2.03;1.93;;;;;;;11.34;52.85;97520.91;7015464;28;20209;-82
2023/01/09 07:31:26;;;;;;;5.00;2.73;;;;;;;11.50;53.72;97549.84;7014246;28;20217;-86
2023/01/09 07:34:50;;;;;;;3.10;2.40;;;;;;;11.44;53.56;97529.22;7012229;28;20225;-80
2023/01/09 07:38:13;;;;;;;3.37;2.10;;;;;;;11.51;53.71;97553.38;6997022;28;20663;-83
2023/01/09 07:41:35;;;;;;;2.57;1.80;;;;;;;11.65;53.75;97546.63;7015076;28;20224;-82
2023/01/09 07:44:56;;;;;;;2.93;2.27;;;;;;;11.43;53.97;97518.66;7013281;28;20226;-83
2023/01/09 07:48:18;;;;;;;2.50;2.00;;;;;;;11.18;53.81;97469.63;7012405;28;20206;-82
2023/01/09 07:51:42;;;;;;;2.47;1.77;;;;;;;11.12;53.79;97538.84;7011392;28;20182;-77
2023/01/09 07:55:06;;;;;;;1.93;1.80;;;;;;;11.08;54.07;97553.84;6995868;28;20236;-86
2023/01/09 07:58:27;;;;;;;4.97;1.80;;;;;;;11.21;52.95;97542.78;6989457;28;20300;-83
2023/01/09 08:01:54;;;;;;;1.90;1.80;;;;;;;11.22;52.72;97519.34;7009401;28;20228;-84
2023/01/09 08:05:17;;;;;;;2.60;1.80;;;;;;;11.02;53.18;97552.13;7006835;28;20222;-87
2023/01/09 08:08:39;;;;;;;4.00;2.70;;;;;;;10.94;53.65;97528.22;7001126;28;20228;-82
2023/01/09 08:12:03;;;;;;;4.37;1.70;;;;;;;10.95;52.84;97537.94;6986646;28;20254;-82
2023/01/09 08:15:24;;;;;;;2.57;2.37;;;;;;;10.81;53.75;97560.00;7007002;28;20229;-80
2023/01/09 08:18:46;;;;;;;2.77;1.87;;;;;;;10.67;53.87;97545.13;7006397;28;20225;-83
2023/01/09 08:22:07;;;;;;;3.73;1.90;;;;;;;10.87;53.36;97545.59;7010515;28;20228;-83
2023/01/09 08:25:29;;;;;;;1.67;1.57;;;;;;;10.22;54.83;97549.50;7001150;28;20232;-85
2023/01/09 08:28:52;;;;;;;3.97;1.67;;;;;;;10.11;54.66;97526.06;6991636;28;20206;-86
2023/01/09 08:32:14;;;;;;;1.67;1.57;;;;;;;10.81;53.00;97563.50;7004137;28;20284;-83
2023/01/09 08:35:35;;;;;;;2.20;1.97;;;;;;;10.64;53.71;97565.28;6992002;28;20761;-86
2023/01/09 08:38:57;;;;;;;2.00;1.80;;;;;;;10.87;53.07;97556.38;6988912;28;20213;-84
2023/01/09 08:49:39;;;;;;;5.30;1.70;;;;;;;14.21;44.56;97538.28;6995166;28;20197;-80
2023/01/09 08:53:00;;;;;;;1.77;1.67;;;;;;;15.33;41.06;97536.81;6990497;28;20373;-80
2023/01/09 08:56:22;;;;;;;2.83;1.70;;;;;;;13.27;45.42;97549.72;6990533;28;20249;-79
2023/01/09 08:59:43;;;;;;;1.60;1.50;;;;;;;13.79;44.09;97508.31;6997692;28;20309;-79
2023/01/09 09:03:06;;;;;;;2.90;1.63;;;;;;;12.75;46.26;97545.75;6999072;28;20214;-79
2023/01/09 09:06:27;;;;;;;2.00;1.63;;;;;;;12.63;46.90;97550.44;7011766;28;20705;-79
2023/01/09 09:09:49;;;;;;;5.10;1.80;;;;;;;11.71;49.66;97548.38;7010990;28;20335;-77
2023/01/09 09:13:10;;;;;;;4.57;1.80;;;;;;;11.92;48.67;97543.06;7009879;28;20310;-79
2023/01/09 09:16:32;;;;;;;2.50;1.57;;;;;;;12.03;48.76;97508.97;6992712;28;20308;-79
2023/01/09 09:19:55;;;;;;;2.90;2.00;;;;;;;11.95;49.88;97552.56;7005046;28;20255;-78
2023/01/09 09:23:16;;;;;;;4.43;2.10;;;;;;;12.48;47.90;97532.13;6990663;28;20539;-79
2023/01/09 09:26:38;;;;;;;2.97;1.77;;;;;;;13.05;46.99;97544.28;7014203;28;20306;-78
2023/01/09 09:29:59;;;;;;;4.30;1.90;;;;;;;11.89;47.31;97527.38;7010902;28;20246;-78
2023/01/09 09:33:21;;;;;;;4.63;1.80;;;;;;;12.89;47.15;97549.72;6995139;28;20306;-78
2023/01/09 09:36:44;;;;;;;4.43;2.13;;;;;;;13.15;47.20;97563.38;6993045;28;20233;-78
2023/01/09 09:40:07;;;;;;;4.03;1.80;;;;;;;13.11;47.03;97556.00;7010142;28;20209;-79
2023/01/09 09:47:44;;;;;;;3.30;1.60;;;;;;;12.81;47.42;97574.50;6999035;28;20225;-78
2023/01/09 09:51:30;;;;;;;3.43;1.53;;;;;;;13.09;46.92;97577.09;6993316;28;20287;-78
2023/01/09 09:54:53;;;;;;;1.90;1.80;;;;;;;12.39;48.74;97576.81;7008760;28;20233;-79
2023/01/09 09:58:20;;;;;;;2.97;1.83;;;;;;;13.05;47.60;97557.81;6995038;28;20297;-80
2023/01/09 10:01:44;;;;;;;1.70;1.60;;;;;;;13.71;45.67;97546.72;7010100;28;20196;-78
2023/01/09 10:05:12;;;;;;;2.37;1.50;;;;;;;12.93;46.64;97581.44;7010754;28;20253;-78
2023/01/09 10:08:38;;;;;;;4.67;1.80;;;;;;;12.78;47.56;97567.72;7014042;28;20320;-80
2023/01/09 10:12:04;;;;;;;3.20;1.70;;;;;;;12.96;47.11;97556.63;7014414;28;20287;-80
2023/01/09 10:15:31;;;;;;;4.03;2.00;;;;;;;12.42;47.57;97540.38;7004904;28;20229;-80
2023/01/09 10:18:59;;;;;;;5.33;1.87;;;;;;;13.01;47.04;97520.69;7004104;28;20244;-80
2023/01/09 10:22:26;;;;;;;2.50;1.70;;;;;;;12.94;47.04;97536.28;6983889;28;20693;-80
2023/01/09 10:25:51;;;;;;;3.27;1.70;;;;;;;13.19;46.94;97533.91;6994487;28;20308;-80
2023/01/09 10:29:28;;;;;;;3.17;1.83;;;;;;;13.86;45.89;97548.75;6992786;28;21053;-80
2023/01/09 10:33:00;;;;;;;4.10;2.30;;;;;;;14.46;44.96;97531.13;6997902;28;20233;-80
2023/01/09 10:36:43;;;;;;;4.00;2.10;;;;;;;13.96;43.98;97540.69;6986761;28;20230;-78
2023/01/09 10:40:08;;;;;;;1.90;1.40;;;;;;;13.54;46.02;97526.19;6997698;28;20327;-78
2023/01/09 10:43:34;;;;;;;2.30;2.03;;;;;;;13.81;44.89;97546.00;6998685;28;20231;-78
2023/01/09 10:46:58;;;;;;;1.57;1.40;;;;;;;13.05;46.67;97557.81;6978896;28;20317;-79
2023/01/09 10:50:22;;;;;;;2.70;2.20;;;;;;;12.45;46.91;97537.19;6984575;28;20245;-78
2023/01/09 10:53:46;;;;;;;2.83;1.97;;;;;;;12.97;47.39;97523.09;6998736;28;20229;-79
2023/01/09 10:57:13;;;;;;;1.80;1.43;;;;;;;13.41;45.81;97527.44;7005761;28;20225;-81
2023/01/09 11:00:34;;;;;;;6.80;3.20;;;;;;;13.34;46.51;97521.38;7005048;28;20284;-78
2023/01/09 11:03:58;;;;;;;5.33;1.73;;;;;;;13.65;45.49;97509.00;7000426;28;20573;-76
2023/01/09 11:07:22;;;;;;;7.17;2.20;;;;;;;14.02;45.26;97510.69;6990635;28;20310;-78
2023/01/09 11:10:48;;;;;;;4.87;1.80;;;;;;;13.70;44.06;97509.84;6996106;28;20205;-78
2023/01/09 11:14:14;;;;;;;2.87;1.70;;;;;;;13.50;45.12;97492.56;7010817;28;20228;-79
2023/01/09 11:17:37;;;;;;;5.13;1.50;;;;;;;12.87;46.80;97519.41;7019277;28;20373;-78
2023/01/09 11:21:14;;;;;;;3.40;1.93;;;;;;;13.52;46.31;97514.81;7003619;28;20687;-80
2023/01/09 11:24:35;;;;;;;3.70;1.87;;;;;;;14.16;45.02;97524.63;7001540;28;20183;-78
2023/01/09 11:28:05;;;;;;;2.80;1.57;;;;;;;14.01;45.50;97517.19;7003025;28;20265;-78
2023/01/09 11:31:27;;;;;;;8.37;3.63;;;;;;;14.23;46.18;97515.22;6988723;28;20208;-77
2023/01/09 11:34:49;;;;;;;9.50;6.20;;;;;;;13.94;45.73;97502.22;7002617;28;20686;-79
2023/01/09 11:38:16;;;;;;;10.40;4.07;;;;;;;13.74;47.71;97515.59;6976474;28;20195;-85
2023/01/09 11:41:38;;;;;;;51.10;31.33;;;;;;;14.42;46.55;97504.78;7003720;28;20214;-77
2023/01/09 11:45:00;;;;;;;4.63;2.63;;;;;;;14.44;45.26;97499.91;7004290;28;20693;-82
2023/01/09 11:48:30;;;;;;;7.53;3.00;;;;;;;14.52;45.16;97505.69;6987701;28;20206;-82
2023/01/09 11:52:11;;;;;;;10.27;5.50;;;;;;;13.76;45.19;97489.06;6975450;28;20239;-78
2023/01/09 11:55:35;;;;;;;3.77;2.33;;;;;;;14.29;45.10;97494.41;6994964;28;20272;-79
2023/01/09 11:58:56;;;;;;;2.43;1.90;;;;;;;13.89;44.91;97484.03;7000342;28;20316;-80
2023/01/09 12:02:34;;;;;;;3.37;1.70;;;;;;;14.71;43.49;97495.22;7002225;28;20218;-79
2023/01/09 12:06:00;;;;;;;5.40;2.13;;;;;;;14.22;44.12;97489.19;6979169;28;20360;-83
2023/01/09 12:09:26;;;;;;;2.90;1.80;;;;;;;13.84;45.22;97496.69;6987170;28;20206;-79
2023/01/09 12:12:54;;;;;;;3.37;1.90;;;;;;;13.25;46.64;97498.53;6976301;28;20285;-79
2023/01/09 12:16:22;;;;;;;4.90;2.10;;;;;;;14.25;44.75;97474.31;6996815;28;20243;-78
2023/01/09 12:20:05;;;;;;;5.53;2.03;;;;;;;14.00;45.34;97487.63;7003163;28;20213;-79
2023/01/09 12:23:37;;;;;;;2.97;1.70;;;;;;;13.27;45.95;97495.59;7003949;28;20195;-79
2023/01/09 12:27:07;;;;;;;2.17;1.90;;;;;;;13.75;44.91;97469.25;7002972;28;20308;-78
2023/01/09 12:30:42;;;;;;;3.77;2.07;;;;;;;14.22;44.23;97496.53;6999848;28;20627;-78
2023/01/09 12:34:16;;;;;;;2.87;1.70;;;;;;;13.86;44.62;97497.28;6983700;28;20348;-79
2023/01/09 12:38:01;;;;;;;2.77;1.60;;;;;;;13.80;44.31;97490.19;7005797;28;20701;-78
2023/01/09 12:41:59;;;;;;;4.03;2.03;;;;;;;14.40;43.97;97509.69;7004177;28;20222;-79
2023/01/09 12:45:37;;;;;;;2.13;1.80;;;;;;;13.57;45.68;97510.25;7007103;28;20311;-78
2023/01/09 12:49:12;;;;;;;6.83;1.90;;;;;;;13.66;45.58;97494.38;7007386;28;20228;-78
2023/01/09 12:52:38;;;;;;;6.17;2.03;;;;;;;13.08;47.52;97499.69;6992641;28;20202;-78
2023/01/09 12:56:03;;;;;;;4.87;1.97;;;;;;;13.21;47.92;97508.22;6999578;28;20322;-79
2023/01/09 12:59:29;;;;;;;3.33;1.70;;;;;;;13.69;47.28;97512.81;7006502;28;20202;-78
2023/01/09 13:02:56;;;;;;;3.73;2.00;;;;;;;14.00;47.24;97493.88;7005846;28;20201;-81
2023/01/09 13:06:19;;;;;;;3.83;3.00;;;;;;;13.26;49.32;97488.53;7006718;28;20221;-78
2023/01/09 13:09:45;;;;;;;8.37;3.00;;;;;;;12.89;50.62;97511.84;7008388;28;20206;-78
2023/01/09 13:13:13;;;;;;;2.33;1.90;;;;;;;13.02;49.97;97511.50;7007663;28;20278;-78
2023/01/09 13:16:40;;;;;;;3.80;2.47;;;;;;;13.26;51.16;97529.94;6987184;28;20706;-78
2023/01/09 13:20:04;;;;;;;5.23;1.60;;;;;;;13.25;51.15;97511.25;6981621;28;20243;-79
2023/01/09 13:23:30;;;;;;;4.00;1.90;;;;;;;13.90;50.28;97529.00;6984107;28;20307;-79
2023/01/09 13:26:55;;;;;;;6.87;2.37;;;;;;;13.92;49.04;97528.75;6984753;28;20308;-79
2023/01/09 13:30:21;;;;;;;7.47;3.77;;;;;;;13.59;49.65;97529.78;7012043;28;20319;-79
2023/01/09 13:33:44;;;;;;;8.70;5.00;;;;;;;14.15;48.56;97534.66;7011578;28;20206;-80
2023/01/09 13:37:20;;;;;;;4.73;2.90;;;;;;;13.84;49.05;97540.03;7011210;28;20730;-80
2023/01/09 13:40:42;;;;;;;6.77;3.10;;;;;;;13.58;51.23;97551.72;7011003;28;20304;-79
2023/01/09 13:44:06;;;;;;;8.53;4.40;;;;;;;13.82;49.87;97540.31;7002661;28;20198;-82
2023/01/09 13:47:28;;;;;;;4.33;2.60;;;;;;;13.35;50.74;97560.94;6997527;28;20263;-82
2023/01/09 13:50:51;;;;;;;4.50;2.40;;;;;;;12.49;54.04;97549.13;7001586;28;20217;-81
2023/01/09 13:54:53;;;;;;;5.20;3.57;;;;;;;12.56;54.56;97528.19;7014447;28;20226;-81
2023/01/09 13:58:23;;;;;;;2.10;1.90;;;;;;;13.56;52.48;97549.25;7017998;28;20213;-81
2023/01/09 14:01:46;;;;;;;2.90;2.10;;;;;;;14.19;50.53;97548.53;6994310;28;20335;-81
2023/01/09 14:05:10;;;;;;;2.33;1.53;;;;;;;14.20;50.80;97542.88;6983708;28;20229;-81
2023/01/09 14:08:32;;;;;;;4.53;2.70;;;;;;;14.04;50.34;97513.16;6986250;28;20359;-81
2023/01/09 14:12:04;;;;;;;2.73;1.73;;;;;;;14.11;50.07;97567.97;6988535;28;20293;-82
2023/01/09 14:15:27;;;;;;;3.47;1.50;;;;;;;14.04;50.11;97564.66;7005569;28;20398;-81
2023/01/09 14:18:51;;;;;;;2.30;1.90;;;;;;;13.61;50.92;97567.44;7008021;28;20304;-81
2023/01/09 14:22:24;;;;;;;2.37;1.67;;;;;;;13.27;51.71;97582.22;6995285;28;20594;-80
2023/01/09 14:25:46;;;;;;;2.83;1.63;;;;;;;12.93;52.06;97559.78;6997343;28;20756;-81
2023/01/09 14:29:38;;;;;;;1.67;1.57;;;;;;;13.12;53.21;97598.22;7004206;28;20670;-81
2023/01/09 14:33:01;;;;;;;1.83;1.70;;;;;;;12.91;52.82;97598.97;7006184;28;20276;-80
2023/01/09 14:36:28;;;;;;;1.50;1.40;;;;;;;13.01;52.26;97604.56;6987170;28;20229;-82
2023/01/09 14:39:50;;;;;;;1.90;1.63;;;;;;;12.94;51.51;97622.84;7002914;28;20676;-81
2023/01/09 14:43:16;;;;;;;1.63;1.53;;;;;;;13.01;50.44;97613.50;7003227;28;20292;-80
2023/01/09 14:46:41;;;;;;;1.20;1.20;;;;;;;12.15;50.61;97548.34;6977686;28;20222;-81
2023/01/09 14:50:06;;;;;;;1.57;1.40;;;;;;;12.86;50.33;97625.97;6978655;28;20214;-80
2023/01/09 14:53:30;;;;;;;2.10;1.90;;;;;;;13.26;48.84;97648.22;6977504;28;20662;-81
2023/01/09 14:56:55;;;;;;;2.07;1.60;;;;;;;12.78;48.87;97656.13;6980205;28;20321;-81
2023/01/09 15:00:18;;;;;;;1.43;1.40;;;;;;;12.97;48.34;97674.59;6990987;28;20201;-81
2023/01/09 15:03:43;;;;;;;1.50;1.40;;;;;;;12.78;48.14;97677.75;7003221;28;20213;-81
2023/01/09 15:07:05;;;;;;;1.93;1.70;;;;;;;12.52;48.56;97689.22;6980280;28;20317;-81
2023/01/09 15:10:29;;;;;;;1.50;1.37;;;;;;;12.50;48.60;97669.72;6977996;28;20230;-81
2023/01/09 15:13:52;;;;;;;1.47;1.40;;;;;;;12.55;48.81;97700.38;6994176;28;20312;-81
2023/01/09 15:17:19;;;;;;;2.97;1.80;;;;;;;12.57;48.32;97702.84;6989110;28;20290;-81
2023/01/09 15:20:43;;;;;;;1.33;1.23;;;;;;;12.48;48.38;97718.66;6989037;28;20580;-80
2023/01/09 15:24:21;;;;;;;1.17;1.17;;;;;;;12.49;48.19;97704.06;7010197;28;20263;-80
2023/01/09 15:27:49;;;;;;;1.30;1.20;;;;;;;12.02;48.43;97729.66;6984706;28;20226;-80
2023/01/09 15:31:14;;;;;;;1.60;1.50;;;;;;;11.94;49.09;97729.22;6980706;28;20204;-80
2023/01/09 15:34:36;;;;;;;1.77;1.67;;;;;;;11.99;48.74;97730.13;6984408;28;20241;-83
2023/01/09 15:37:59;;;;;;;3.43;1.97;;;;;;;12.18;48.29;97723.50;6995069;28;20201;-81
2023/01/09 15:45:05;;;;;;;2.07;1.77;;;;;;;12.79;46.82;97715.38;6984570;28;20230;-82
2023/01/09 15:48:29;;;;;;;1.97;1.63;;;;;;;12.80;46.09;97706.22;6977911;28;20659;-82
2023/01/09 15:51:51;;;;;;;2.20;2.00;;;;;;;12.55;47.00;97684.16;6995916;28;20208;-82
2023/01/09 15:55:24;;;;;;;2.23;2.03;;;;;;;11.94;48.68;97703.03;7000023;28;20332;-82
2023/01/09 15:58:46;;;;;;;2.00;1.87;;;;;;;12.04;48.19;97726.72;6996694;28;20190;-82
2023/01/09 16:05:56;;;;;;;6.00;3.40;;;;;;;12.31;48.72;97744.81;6982531;28;20225;-82
2023/01/09 16:09:27;;;;;;;3.57;3.27;;;;;;;12.36;49.69;97768.41;6988859;28;20209;-82
2023/01/09 16:12:51;;;;;;;2.27;1.90;;;;;;;11.88;52.45;97797.69;6991813;28;20655;-82
2023/01/09 16:16:14;;;;;;;2.90;2.00;;;;;;;10.90;56.59;97798.56;6984918;28;20363;-82
2023/01/09 16:19:46;;;;;;;3.63;3.27;;;;;;;11.05;57.56;97812.44;7006699;28;20288;-80
2023/01/09 16:23:20;;;;;;;2.93;1.90;;;;;;;11.87;56.76;97804.94;6985240;28;20259;-79
2023/01/09 16:26:41;;;;;;;3.67;3.20;;;;;;;12.50;54.28;97800.31;7000365;28;20314;-79